Time;durP1;ratioP1;P1;durP2;ratioP2;P2;SDS_P1;SDS_P2;PMS_P1;PMS_P2;Temp;Humidity;BMP_temperature;BMP_pressure;BME280_temperature;BME280_humidity;BME280_pressure;Samples;Min_cycle;Max_cycle;Signal;HPM_P1;HPM_P2
2021/09/02 00:02:11;;;;;;;13.23;8.80;;;;;;;11.23;100.00;102356.97;4997674;28;20034;-82
2021/09/02 00:04:36;;;;;;;13.35;8.35;;;;;;;11.21;100.00;102356.25;4997999;28;20049;-82
2021/09/02 00:07:02;;;;;;;13.00;8.18;;;;;;;11.17;100.00;102357.50;4976698;28;20141;-82
2021/09/02 00:09:28;;;;;;;14.25;9.38;;;;;;;11.15;100.00;102358.59;4998916;28;20050;-83
2021/09/02 00:11:53;;;;;;;11.80;8.68;;;;;;;11.13;100.00;102358.72;5000507;28;20136;-82
2021/09/02 00:14:19;;;;;;;13.88;8.90;;;;;;;11.12;100.00;102362.41;4997562;28;20072;-82
2021/09/02 00:16:44;;;;;;;16.30;8.88;;;;;;;11.08;100.00;102355.59;5001349;28;20573;-82
2021/09/02 00:19:10;;;;;;;11.63;8.60;;;;;;;11.05;100.00;102363.91;4996207;28;20403;-82
2021/09/02 00:21:37;;;;;;;13.70;9.52;;;;;;;11.04;100.00;102357.66;4995382;28;20274;-83
2021/09/02 00:24:02;;;;;;;13.05;8.20;;;;;;;11.00;100.00;102358.91;4996902;28;20054;-83
2021/09/02 00:26:28;;;;;;;13.30;8.20;;;;;;;10.96;100.00;102360.16;4996251;28;20045;-83
2021/09/02 00:28:55;;;;;;;12.98;8.18;;;;;;;10.95;100.00;102362.97;4997549;28;20088;-83
2021/09/02 00:31:20;;;;;;;13.93;8.40;;;;;;;10.94;100.00;102361.28;4965864;28;20421;-83
2021/09/02 00:33:45;;;;;;;12.60;8.88;;;;;;;10.93;100.00;102362.25;4996392;28;20351;-83
2021/09/02 00:36:11;;;;;;;12.88;8.18;;;;;;;10.90;100.00;102359.81;4994273;28;20133;-82
2021/09/02 00:38:37;;;;;;;11.20;7.72;;;;;;;10.85;100.00;102357.53;4998125;28;20124;-82
2021/09/02 00:41:04;;;;;;;12.10;8.70;;;;;;;10.83;100.00;102367.53;4985139;28;20143;-82
2021/09/02 00:43:39;;;;;;;13.38;8.65;;;;;;;10.82;100.00;102373.91;4993054;28;20526;-82
2021/09/02 00:46:06;;;;;;;15.20;8.82;;;;;;;10.77;100.00;102366.22;4999922;28;20468;-82
2021/09/02 00:48:33;;;;;;;13.13;8.60;;;;;;;10.77;100.00;102368.03;4999580;28;20045;-81
2021/09/02 00:50:59;;;;;;;13.07;8.27;;;;;;;10.74;100.00;102365.63;4995858;28;20084;-82
2021/09/02 00:53:24;;;;;;;12.27;8.20;;;;;;;10.66;100.00;102366.25;4994612;28;20074;-81
2021/09/02 00:55:49;;;;;;;13.73;8.48;;;;;;;10.68;100.00;102361.59;4997410;28;20462;-82
2021/09/02 00:58:19;;;;;;;12.70;8.48;;;;;;;10.65;100.00;102358.34;5000107;28;20045;-82
2021/09/02 01:00:45;;;;;;;12.98;8.90;;;;;;;10.63;100.00;102357.59;4994241;28;20044;-82
2021/09/02 01:03:10;;;;;;;13.50;8.15;;;;;;;10.58;100.00;102355.28;4993645;28;20490;-82
2021/09/02 01:05:36;;;;;;;12.55;8.30;;;;;;;10.60;100.00;102362.22;4998661;28;20044;-82
2021/09/02 01:08:02;;;;;;;12.90;8.38;;;;;;;10.55;100.00;102356.38;4996281;28;20267;-83
2021/09/02 01:10:28;;;;;;;13.07;8.55;;;;;;;10.51;100.00;102360.31;4979716;28;20131;-83
2021/09/02 01:12:53;;;;;;;13.02;8.95;;;;;;;10.49;100.00;102359.56;4997528;28;20046;-82
2021/09/02 01:15:25;;;;;;;13.88;8.77;;;;;;;10.45;100.00;102352.75;4983383;28;20042;-83
2021/09/02 01:17:54;;;;;;;13.75;9.05;;;;;;;10.44;100.00;102353.72;4994201;28;20114;-82
2021/09/02 01:20:21;;;;;;;;;;;;;;;10.41;100.00;102356.66;4993170;28;20293;-83
2021/09/02 01:22:50;;;;;;;12.30;8.32;;;;;;;10.28;100.00;102355.97;4993639;28;19917;-82
2021/09/02 01:25:19;;;;;;;16.50;9.18;;;;;;;10.26;100.00;102349.81;4999645;28;20046;-82
2021/09/02 01:27:50;;;;;;;16.17;8.95;;;;;;;10.30;100.00;102351.31;5010350;28;20053;-82
2021/09/02 01:30:17;;;;;;;15.60;9.30;;;;;;;10.26;100.00;102345.31;4993590;28;20155;-82
2021/09/02 01:32:46;;;;;;;14.40;8.80;;;;;;;10.25;100.00;102345.44;4991856;28;20053;-83
2021/09/02 01:35:13;;;;;;;13.85;9.55;;;;;;;10.23;100.00;102340.19;5000864;28;20136;-82
2021/09/02 01:37:38;;;;;;;15.13;10.00;;;;;;;10.22;100.00;102340.34;4995399;28;20042;-82
2021/09/02 01:40:04;;;;;;;13.25;9.80;;;;;;;10.19;100.00;102346.81;4994871;28;20121;-81
2021/09/02 01:42:29;;;;;;;14.80;9.55;;;;;;;10.19;100.00;102345.94;4992845;28;20045;-83
2021/09/02 01:44:55;;;;;;;14.38;9.15;;;;;;;10.13;100.00;102345.47;4997334;28;20045;-82
2021/09/02 01:47:25;;;;;;;14.48;9.30;;;;;;;10.13;100.00;102341.94;4989972;28;20048;-82
2021/09/02 01:49:52;;;;;;;13.80;9.50;;;;;;;10.11;100.00;102344.72;5015420;28;20430;-82
2021/09/02 01:52:19;;;;;;;15.13;9.30;;;;;;;10.10;100.00;102348.41;5001780;28;20398;-82
2021/09/02 01:54:45;;;;;;;14.98;8.75;;;;;;;10.08;100.00;102353.03;5012331;28;21544;-82
2021/09/02 01:57:12;;;;;;;17.80;9.50;;;;;;;10.08;100.00;102341.44;4981635;28;20111;-82
2021/09/02 01:59:37;;;;;;;16.48;9.35;;;;;;;10.05;100.00;102342.53;5010147;28;20054;-82
2021/09/02 02:02:03;;;;;;;14.88;9.30;;;;;;;10.01;100.00;102338.41;4996485;28;20391;-82
2021/09/02 02:04:29;;;;;;;14.73;9.13;;;;;;;10.01;100.00;102335.72;4983702;28;20057;-82
2021/09/02 02:06:54;;;;;;;15.60;9.40;;;;;;;9.97;100.00;102339.63;5010238;28;20610;-82
2021/09/02 02:09:19;;;;;;;14.02;8.50;;;;;;;9.98;100.00;102341.31;4994963;28;20045;-82
2021/09/02 02:11:45;;;;;;;12.77;8.85;;;;;;;9.93;100.00;102332.81;5001390;28;20038;-81
2021/09/02 02:14:11;;;;;;;13.27;8.32;;;;;;;9.91;100.00;102335.59;4990816;28;20041;-81
2021/09/02 02:16:36;;;;;;;16.90;9.15;;;;;;;9.89;100.00;102334.84;4994560;28;20060;-82
2021/09/02 02:19:02;;;;;;;13.27;8.80;;;;;;;9.82;100.00;102330.13;4999685;28;20236;-83
2021/09/02 02:21:27;;;;;;;12.45;8.93;;;;;;;9.82;100.00;102330.13;4993927;28;20115;-82
2021/09/02 02:23:52;;;;;;;13.18;8.90;;;;;;;9.82;100.00;102325.59;4991142;28;20104;-82
2021/09/02 02:26:18;;;;;;;13.13;8.68;;;;;;;9.79;100.00;102316.97;4997226;28;20069;-81
2021/09/02 02:28:43;;;;;;;15.20;8.80;;;;;;;9.77;100.00;102316.22;4974629;28;20525;-81
2021/09/02 02:31:08;;;;;;;11.77;8.18;;;;;;;9.70;100.00;102327.44;4997712;28;20163;-82
2021/09/02 02:33:34;;;;;;;13.65;8.52;;;;;;;9.68;100.00;102324.00;4999751;28;20058;-82
2021/09/02 02:35:59;;;;;;;14.15;8.82;;;;;;;9.63;100.00;102334.22;4982897;28;20069;-82
2021/09/02 02:38:25;;;;;;;15.73;8.45;;;;;;;9.66;100.00;102328.63;4999052;28;20391;-82
2021/09/02 02:40:50;;;;;;;11.38;7.57;;;;;;;9.65;100.00;102321.56;4999428;28;20042;-82
2021/09/02 02:43:15;;;;;;;11.25;8.48;;;;;;;9.61;100.00;102328.16;4993030;28;20388;-82
2021/09/02 02:45:41;;;;;;;14.20;8.32;;;;;;;9.61;100.00;102322.81;5002966;28;20046;-83
2021/09/02 02:48:06;;;;;;;13.15;8.13;;;;;;;9.60;100.00;102321.06;4997565;28;20453;-83
2021/09/02 02:50:32;;;;;;;15.27;8.95;;;;;;;9.60;100.00;102325.59;5001188;28;20042;-83
2021/09/02 02:52:58;;;;;;;15.63;8.75;;;;;;;9.60;100.00;102314.88;5003096;28;20571;-82
2021/09/02 02:55:23;;;;;;;25.65;12.63;;;;;;;9.57;100.00;102321.31;5001854;28;20382;-83
2021/09/02 02:57:49;;;;;;;19.35;11.20;;;;;;;9.53;100.00;102319.03;5003488;28;20047;-82
2021/09/02 03:00:15;;;;;;;26.67;13.02;;;;;;;9.49;100.00;102313.91;4994143;28;20041;-83
2021/09/02 03:02:40;;;;;;;25.33;12.88;;;;;;;9.50;100.00;102325.47;4996965;28;20048;-83
2021/09/02 03:05:08;;;;;;;29.10;14.32;;;;;;;9.49;100.00;102323.75;4998250;28;20104;-82
2021/09/02 03:07:34;;;;;;;30.95;14.88;;;;;;;9.46;100.00;102323.97;4997361;28;20104;-82
2021/09/02 03:09:59;;;;;;;33.38;16.23;;;;;;;9.42;100.00;102320.69;5000619;28;20558;-82
2021/09/02 03:12:25;;;;;;;38.22;15.43;;;;;;;9.40;100.00;102319.09;4998347;28;20065;-83
2021/09/02 03:14:50;;;;;;;27.83;15.32;;;;;;;9.45;100.00;102328.50;4996342;28;20514;-82
2021/09/02 03:17:16;;;;;;;26.58;14.82;;;;;;;9.41;100.00;102321.69;4982626;28;20543;-82
2021/09/02 03:19:41;;;;;;;25.95;15.25;;;;;;;9.40;100.00;102321.78;4998375;28;20155;-82
2021/09/02 03:22:06;;;;;;;25.42;15.38;;;;;;;9.40;100.00;102319.09;4984840;28;20161;-81
2021/09/02 03:24:32;;;;;;;24.98;16.27;;;;;;;9.38;100.00;102321.91;5001580;28;20399;-82
2021/09/02 03:26:57;;;;;;;30.15;16.02;;;;;;;9.38;100.00;102326.41;5001411;28;20041;-81
2021/09/02 03:29:23;;;;;;;29.70;17.83;;;;;;;9.37;100.00;102322.88;5002197;28;20125;-82
2021/09/02 03:31:48;;;;;;;34.45;19.13;;;;;;;9.41;100.00;102327.03;4993440;28;20046;-83
2021/09/02 03:34:13;;;;;;;38.65;18.63;;;;;;;9.42;100.00;102325.22;4995676;28;20283;-82
2021/09/02 03:36:41;;;;;;;33.90;18.05;;;;;;;9.41;100.00;102323.50;5006157;28;20038;-82
2021/09/02 03:39:06;;;;;;;31.85;18.02;;;;;;;9.40;100.00;102319.09;4994786;28;20057;-82
2021/09/02 03:41:31;;;;;;;31.02;17.25;;;;;;;9.41;100.00;102320.84;4997664;28;20093;-81
2021/09/02 03:43:57;;;;;;;37.38;19.20;;;;;;;9.39;100.00;102314.72;4997327;28;20486;-81
2021/09/02 03:46:22;;;;;;;56.60;19.38;;;;;;;9.39;100.00;102312.91;4997268;28;20045;-84
2021/09/02 03:48:48;;;;;;;53.63;19.40;;;;;;;9.37;100.00;102319.34;5000588;28;20218;-82
2021/09/02 03:51:14;;;;;;;57.85;21.67;;;;;;;9.35;100.00;102310.56;4999508;28;20129;-81
2021/09/02 03:53:39;;;;;;;65.18;23.70;;;;;;;9.35;100.00;102315.94;5020808;28;20141;-82
2021/09/02 03:56:04;;;;;;;59.42;22.17;;;;;;;9.32;100.00;102316.16;5002957;28;20058;-83
2021/09/02 03:58:30;;;;;;;55.15;21.65;;;;;;;9.29;100.00;102317.25;5002040;28;20038;-82
2021/09/02 04:00:55;;;;;;;37.03;19.42;;;;;;;9.24;100.00;102316.78;4984883;28;20266;-83
2021/09/02 04:03:20;;;;;;;35.35;18.00;;;;;;;9.24;100.00;102320.31;5001291;28;20049;-82
2021/09/02 04:05:46;;;;;;;34.33;18.85;;;;;;;9.23;100.00;102313.22;4998032;28;20074;-83
2021/09/02 04:08:11;;;;;;;31.20;18.23;;;;;;;9.26;100.00;102309.44;5012571;28;20042;-85
2021/09/02 04:10:37;;;;;;;35.03;18.95;;;;;;;9.21;100.00;102319.69;4999071;28;20046;-83
2021/09/02 04:13:02;;;;;;;29.45;17.77;;;;;;;9.22;100.00;102316.88;5009799;28;20567;-83
2021/09/02 04:15:27;;;;;;;31.08;17.67;;;;;;;9.24;100.00;102319.47;5001487;28;20630;-83
2021/09/02 04:17:53;;;;;;;29.35;16.90;;;;;;;9.24;100.00;102322.13;4999125;28;20398;-82
2021/09/02 04:20:18;;;;;;;30.98;18.10;;;;;;;9.24;100.00;102320.31;4998619;28;20034;-82
2021/09/02 04:22:43;;;;;;;33.88;17.35;;;;;;;9.29;100.00;102321.75;4994338;28;20092;-83
2021/09/02 04:25:09;;;;;;;31.23;17.75;;;;;;;9.31;100.00;102320.66;4994055;28;20076;-83
2021/09/02 04:27:34;;;;;;;30.77;17.58;;;;;;;9.31;100.00;102319.81;5001670;28;20073;-82
2021/09/02 04:30:00;;;;;;;32.47;18.20;;;;;;;9.34;100.00;102323.13;4994858;28;20052;-83
2021/09/02 04:32:25;;;;;;;29.77;16.63;;;;;;;9.35;100.00;102327.53;4995522;28;20073;-82
2021/09/02 04:34:51;;;;;;;30.35;16.85;;;;;;;9.30;100.00;102334.22;4963351;28;20061;-82
2021/09/02 04:37:16;;;;;;;32.05;17.40;;;;;;;9.32;100.00;102329.56;4991623;28;20100;-82
2021/09/02 04:39:41;;;;;;;31.52;17.67;;;;;;;9.32;100.00;102327.75;4999436;28;20057;-83
2021/09/02 04:42:07;;;;;;;35.28;17.60;;;;;;;9.32;100.00;102324.19;4997334;28;20594;-84
2021/09/02 04:44:32;;;;;;;34.03;17.77;;;;;;;9.34;100.00;102328.47;4992412;28;20452;-82
2021/09/02 04:46:58;;;;;;;31.08;17.85;;;;;;;9.30;100.00;102328.84;5002361;28;20049;-82
2021/09/02 04:49:23;;;;;;;30.98;17.90;;;;;;;9.33;100.00;102325.94;4994743;28;20048;-82
2021/09/02 04:51:48;;;;;;;32.60;18.55;;;;;;;9.37;100.00;102324.69;4998670;28;20211;-83
2021/09/02 04:54:14;;;;;;;38.58;20.08;;;;;;;9.41;100.00;102324.38;4990548;28;20419;-83
2021/09/02 04:56:39;;;;;;;46.45;21.92;;;;;;;9.42;100.00;102326.06;5004202;28;20050;-83
2021/09/02 04:59:04;;;;;;;38.35;21.95;;;;;;;9.39;100.00;102328.97;4988359;28;20129;-81
2021/09/02 05:01:30;;;;;;;32.35;19.33;;;;;;;9.35;100.00;102327.53;4979962;28;20426;-82
2021/09/02 05:03:55;;;;;;;38.63;19.65;;;;;;;9.29;100.00;102327.97;4994952;28;20136;-82
2021/09/02 05:06:21;;;;;;;53.20;20.45;;;;;;;9.30;100.00;102331.53;4994174;28;20080;-82
2021/09/02 05:08:46;;;;;;;53.42;20.33;;;;;;;9.29;100.00;102322.59;4997430;28;20491;-82
2021/09/02 05:11:11;;;;;;;46.90;21.00;;;;;;;9.25;100.00;102322.00;5001455;28;20034;-82
2021/09/02 05:13:36;;;;;;;59.13;21.30;;;;;;;9.22;100.00;102322.25;4997793;28;20104;-83
2021/09/02 05:16:02;;;;;;;65.82;21.05;;;;;;;9.19;100.00;102327.00;4990264;28;20058;-83
2021/09/02 05:18:27;;;;;;;42.95;20.13;;;;;;;9.18;100.00;102328.81;4994304;28;20160;-83
2021/09/02 05:20:53;;;;;;;44.08;19.48;;;;;;;9.17;100.00;102339.63;4983049;28;20042;-82
2021/09/02 05:23:18;;;;;;;39.42;19.52;;;;;;;9.16;100.00;102341.47;4978969;28;20045;-82
2021/09/02 05:25:44;;;;;;;39.42;19.83;;;;;;;9.20;100.00;102332.22;4996043;28;20080;-82
2021/09/02 05:28:09;;;;;;;44.70;20.15;;;;;;;9.24;100.00;102332.84;4983909;28;20045;-82
2021/09/02 05:30:35;;;;;;;46.33;21.67;;;;;;;9.29;100.00;102329.78;5002121;28;20065;-82
2021/09/02 05:33:00;;;;;;;42.45;20.67;;;;;;;9.32;100.00;102332.25;4997707;28;20120;-83
2021/09/02 05:35:26;;;;;;;54.83;22.88;;;;;;;9.32;100.00;102327.75;4994262;28;20548;-82
2021/09/02 05:37:52;;;;;;;46.22;21.58;;;;;;;9.37;100.00;102330.91;4997330;28;20065;-82
2021/09/02 05:40:21;;;;;;;42.33;21.80;;;;;;;9.40;100.00;102327.16;5011204;28;20072;-83
2021/09/02 05:42:48;;;;;;;45.70;21.48;;;;;;;9.54;100.00;102321.56;4999940;28;20042;-82
2021/09/02 05:45:14;;;;;;;38.25;21.08;;;;;;;9.56;100.00;102319.63;5003638;28;20049;-82
2021/09/02 05:47:39;;;;;;;43.22;21.45;;;;;;;9.55;100.00;102325.97;5002252;28;20105;-82
2021/09/02 05:50:06;;;;;;;39.95;19.45;;;;;;;9.46;100.00;102321.31;5008471;28;20491;-82
2021/09/02 05:52:31;;;;;;;35.95;19.35;;;;;;;9.49;100.00;102321.06;4993122;28;20141;-83
2021/09/02 05:54:58;;;;;;;38.13;20.02;;;;;;;9.51;100.00;102332.53;4999482;28;20138;-82
2021/09/02 05:57:24;;;;;;;33.03;20.23;;;;;;;9.55;100.00;102335.81;5005928;28;20080;-83
2021/09/02 05:59:50;;;;;;;39.05;20.98;;;;;;;9.59;100.00;102332.78;4999627;28;20069;-83
2021/09/02 06:02:15;;;;;;;36.58;19.80;;;;;;;9.63;100.00;102342.28;4995925;28;20499;-83
2021/09/02 06:04:41;;;;;;;37.45;21.73;;;;;;;9.64;100.00;102330.59;4997912;28;20060;-82
2021/09/02 06:07:06;;;;;;;34.33;21.35;;;;;;;9.74;100.00;102335.22;5000224;28;20220;-82
2021/09/02 06:09:31;;;;;;;33.95;20.65;;;;;;;9.77;100.00;102327.78;4981096;28;20154;-83
2021/09/02 06:11:57;;;;;;;31.42;20.85;;;;;;;9.83;100.00;102332.66;5001680;28;20411;-81
2021/09/02 06:14:22;;;;;;;34.65;21.08;;;;;;;9.91;100.00;102329.38;4994694;28;20137;-82
2021/09/02 06:16:48;;;;;;;33.15;20.33;;;;;;;9.95;100.00;102328.16;4998780;28;20491;-81
2021/09/02 06:19:13;;;;;;;36.85;21.00;;;;;;;10.01;100.00;102341.09;4994965;28;20182;-83
2021/09/02 06:21:39;;;;;;;32.63;21.55;;;;;;;10.07;100.00;102337.91;4997666;28;20054;-81
2021/09/02 06:24:05;;;;;;;31.98;20.98;;;;;;;10.13;100.00;102336.56;5003289;28;20041;-81
2021/09/02 06:26:30;;;;;;;34.05;21.73;;;;;;;10.23;100.00;102333.97;4998036;28;20461;-83
2021/09/02 06:28:55;;;;;;;32.42;21.80;;;;;;;10.33;100.00;102340.34;4997232;28;20046;-81
2021/09/02 06:31:21;;;;;;;34.17;20.98;;;;;;;10.40;100.00;102346.91;5000599;28;20058;-84
2021/09/02 06:33:46;;;;;;;40.22;22.75;;;;;;;10.50;100.00;102342.50;4977659;28;20104;-82
2021/09/02 06:36:11;;;;;;;32.38;21.45;;;;;;;10.63;100.00;102346.84;5002185;28;20064;-84
2021/09/02 06:38:37;;;;;;;35.15;22.63;;;;;;;10.73;100.00;102337.91;4995194;28;20046;-83
2021/09/02 06:41:02;;;;;;;36.63;23.77;;;;;;;10.87;100.00;102334.06;4998303;28;20069;-82
2021/09/02 06:43:28;;;;;;;37.67;23.05;;;;;;;11.00;100.00;102337.44;5000828;28;21247;-83
2021/09/02 06:45:53;;;;;;;47.17;24.27;;;;;;;11.09;100.00;102337.63;4999295;28;20139;-82
2021/09/02 06:48:18;;;;;;;41.53;24.42;;;;;;;11.20;100.00;102333.06;5002833;28;20053;-82
2021/09/02 06:50:44;;;;;;;40.92;23.92;;;;;;;11.36;100.00;102329.88;4991464;28;20060;-84
2021/09/02 06:53:09;;;;;;;39.88;22.48;;;;;;;11.48;100.00;102334.22;5000154;28;20391;-82
2021/09/02 06:55:35;;;;;;;43.22;23.95;;;;;;;11.62;100.00;102341.06;5008584;28;20483;-82
2021/09/02 06:58:00;;;;;;;41.45;23.55;;;;;;;11.77;100.00;102333.53;5001649;28;20046;-82
2021/09/02 07:00:26;;;;;;;45.90;24.50;;;;;;;11.92;100.00;102336.72;4992219;28;20066;-82
2021/09/02 07:02:51;;;;;;;47.80;24.85;;;;;;;12.05;100.00;102339.19;4997754;28;20046;-82
2021/09/02 07:05:17;;;;;;;43.75;24.92;;;;;;;12.16;100.00;102334.53;4988548;28;20049;-83
2021/09/02 07:07:43;;;;;;;48.22;24.08;;;;;;;12.26;100.00;102329.19;5001947;28;20390;-82
2021/09/02 07:10:09;;;;;;;43.17;22.77;;;;;;;12.38;100.00;102328.09;4998295;28;20053;-82
2021/09/02 07:12:34;;;;;;;45.95;24.45;;;;;;;12.52;100.00;102323.31;5001138;28;20653;-81
2021/09/02 07:15:00;;;;;;;37.10;22.33;;;;;;;12.64;100.00;102323.03;4999993;28;20069;-83
2021/09/02 07:17:25;;;;;;;41.22;22.02;;;;;;;12.76;100.00;102320.19;5001656;28;20045;-81
2021/09/02 07:19:51;;;;;;;37.88;21.33;;;;;;;12.84;100.00;102317.66;4992126;28;20048;-83
2021/09/02 07:22:16;;;;;;;38.17;21.08;;;;;;;12.96;100.00;102316.50;4996149;28;20042;-82
2021/09/02 07:24:42;;;;;;;37.30;21.08;;;;;;;13.09;100.00;102327.00;4995833;28;20674;-83
2021/09/02 07:27:07;;;;;;;36.10;21.58;;;;;;;13.22;100.00;102327.53;4995914;28;20089;-82
2021/09/02 07:29:33;;;;;;;36.35;19.80;;;;;;;13.35;100.00;102321.00;4996933;28;20717;-84
2021/09/02 07:31:58;;;;;;;34.03;19.92;;;;;;;13.46;100.00;102326.22;4995874;28;21439;-82
2021/09/02 07:34:24;;;;;;;31.25;18.65;;;;;;;13.59;100.00;102332.16;4999622;28;20045;-83
2021/09/02 07:36:50;;;;;;;35.72;18.20;;;;;;;13.71;100.00;102328.28;4996252;28;20364;-82
2021/09/02 07:39:15;;;;;;;26.92;17.02;;;;;;;13.81;100.00;102340.88;4999550;28;20129;-83
2021/09/02 07:41:41;;;;;;;30.10;17.77;;;;;;;13.92;100.00;102346.09;4994797;28;20041;-82
2021/09/02 07:44:07;;;;;;;28.05;16.05;;;;;;;14.04;100.00;102350.31;4998311;28;20045;-83
2021/09/02 07:46:32;;;;;;;26.25;15.07;;;;;;;14.19;100.00;102343.41;4983186;28;20050;-84
2021/09/02 07:48:58;;;;;;;23.67;14.98;;;;;;;14.28;100.00;102335.44;5010090;28;20041;-83
2021/09/02 07:51:23;;;;;;;21.60;14.23;;;;;;;14.39;100.00;102343.31;5000823;28;20474;-84
2021/09/02 07:53:49;;;;;;;26.85;14.00;;;;;;;14.45;100.00;102340.84;5001365;28;20054;-82
2021/09/02 07:56:14;;;;;;;24.02;14.25;;;;;;;14.62;100.00;102344.59;4987717;28;20038;-82
2021/09/02 07:58:42;;;;;;;21.67;12.60;;;;;;;14.70;100.00;102351.94;5002710;28;20041;-82
2021/09/02 08:01:10;;;;;;;19.90;12.30;;;;;;;14.78;100.00;102348.47;4997948;28;20041;-82
2021/09/02 08:03:36;;;;;;;22.00;13.10;;;;;;;14.84;99.88;102347.84;4997683;28;20236;-83
2021/09/02 08:06:02;;;;;;;17.95;12.50;;;;;;;14.90;97.22;102347.22;5014916;28;20042;-84
2021/09/02 08:08:27;;;;;;;20.00;12.50;;;;;;;15.04;98.23;102349.38;4998836;28;20120;-82
2021/09/02 08:10:53;;;;;;;21.23;11.70;;;;;;;15.11;97.60;102355.88;4995109;28;20049;-82
2021/09/02 08:13:18;;;;;;;19.75;11.93;;;;;;;15.21;96.03;102358.47;4998876;28;20077;-83
2021/09/02 08:15:44;;;;;;;23.63;11.07;;;;;;;15.32;96.21;102352.81;4985941;28;20042;-84
2021/09/02 08:18:11;;;;;;;17.30;10.73;;;;;;;15.39;94.80;102353.03;4998034;28;20040;-84
2021/09/02 08:20:36;;;;;;;19.50;10.50;;;;;;;15.45;93.90;102351.53;5000991;28;20042;-83
2021/09/02 08:23:03;;;;;;;18.50;11.07;;;;;;;15.54;95.37;102356.88;4995466;28;20050;-83
2021/09/02 08:25:29;;;;;;;22.33;11.75;;;;;;;15.64;94.40;102356.75;4997040;28;20136;-84
2021/09/02 08:27:55;;;;;;;20.90;11.35;;;;;;;15.68;93.99;102360.00;4999363;28;20050;-83
2021/09/02 08:30:24;;;;;;;21.02;12.13;;;;;;;15.78;95.39;102356.19;4996733;28;20111;-83
2021/09/02 08:32:50;;;;;;;20.13;10.73;;;;;;;15.80;93.54;102366.88;5011537;28;20410;-82
2021/09/02 08:35:22;;;;;;;20.52;11.73;;;;;;;15.88;93.60;102363.34;4999142;28;20046;-84
2021/09/02 08:37:54;;;;;;;18.70;10.88;;;;;;;16.01;94.48;102361.06;4961405;28;20058;-83
2021/09/02 08:40:23;;;;;;;20.65;11.00;;;;;;;16.06;92.94;102360.59;4998215;28;20062;-84
2021/09/02 08:42:50;;;;;;;17.25;9.65;;;;;;;16.18;91.79;102367.41;4998694;28;20369;-83
2021/09/02 08:45:15;;;;;;;19.95;10.15;;;;;;;16.22;91.06;102357.91;4997903;28;20487;-84
2021/09/02 08:47:45;;;;;;;18.90;11.48;;;;;;;16.32;92.28;102355.94;4996567;28;20089;-82
2021/09/02 08:50:13;;;;;;;17.40;8.93;;;;;;;16.36;88.76;102360.00;4999463;28;20054;-83
2021/09/02 08:52:39;;;;;;;17.38;8.55;;;;;;;16.42;87.71;102353.94;4997634;28;20434;-84
2021/09/02 08:55:04;;;;;;;18.20;8.68;;;;;;;16.56;87.65;102357.03;4979509;28;20052;-83
2021/09/02 08:57:30;;;;;;;18.60;9.68;;;;;;;16.65;88.84;102356.84;4994195;28;20283;-83
2021/09/02 08:59:56;;;;;;;15.02;8.25;;;;;;;16.71;87.21;102360.75;4995795;28;20041;-84
2021/09/02 09:02:23;;;;;;;15.07;8.10;;;;;;;16.79;87.80;102352.69;4995038;28;20046;-83
2021/09/02 09:05:01;;;;;;;16.05;7.43;;;;;;;16.86;85.88;102356.44;5003202;28;20081;-83
2021/09/02 09:07:28;;;;;;;15.77;7.78;;;;;;;16.97;85.43;102354.41;5007076;28;20053;-84
2021/09/02 09:09:53;;;;;;;15.70;7.88;;;;;;;17.06;86.70;102348.81;4998317;28;20484;-84
2021/09/02 09:12:31;;;;;;;16.55;9.18;;;;;;;17.11;85.03;102343.72;4997784;28;20042;-83
2021/09/02 09:14:57;;;;;;;15.30;8.02;;;;;;;17.22;84.73;102350.66;4992785;28;20454;-83
2021/09/02 09:17:23;;;;;;;18.75;7.43;;;;;;;17.40;85.04;102352.34;5015565;28;20258;-83
2021/09/02 09:19:52;;;;;;;13.68;7.10;;;;;;;17.34;82.00;102345.75;4986022;28;20072;-83
2021/09/02 09:22:20;;;;;;;12.95;7.47;;;;;;;17.45;83.22;102342.69;4999405;28;20034;-83
2021/09/02 09:24:51;;;;;;;13.18;7.18;;;;;;;17.52;82.40;102340.97;4994944;28;20128;-83
2021/09/02 09:27:22;;;;;;;15.35;8.25;;;;;;;17.54;82.01;102336.22;4996727;28;20045;-83
2021/09/02 09:30:08;;;;;;;13.30;7.82;;;;;;;17.77;82.98;102340.91;4982114;28;20056;-83
2021/09/02 09:32:39;;;;;;;15.00;8.00;;;;;;;17.91;80.87;102336.66;4993797;28;20052;-84
2021/09/02 09:35:06;;;;;;;13.20;7.82;;;;;;;17.92;80.85;102332.91;4994781;28;20038;-83
2021/09/02 09:37:31;;;;;;;15.85;8.82;;;;;;;17.94;79.35;102333.59;4996130;28;20322;-84
2021/09/02 09:40:11;;;;;;;17.08;8.07;;;;;;;17.97;80.36;102325.94;4995591;28;20491;-83
2021/09/02 09:42:38;;;;;;;15.77;7.88;;;;;;;18.19;82.34;102334.34;4997087;28;20052;-84
2021/09/02 09:45:07;;;;;;;19.23;8.93;;;;;;;18.33;80.29;102339.03;4997158;28;20588;-83
2021/09/02 09:47:37;;;;;;;;;;;;;;;18.39;80.32;102334.75;5008984;28;20053;-83
2021/09/02 09:50:09;;;;;;;16.77;9.02;;;;;;;18.43;80.88;102339.63;4992150;28;20405;-85
2021/09/02 09:52:41;;;;;;;18.20;9.20;;;;;;;18.26;80.31;102336.16;4990419;28;20053;-84
2021/09/02 09:55:18;;;;;;;14.35;9.20;;;;;;;18.20;82.11;102334.16;5009747;28;20038;-83
2021/09/02 09:57:48;;;;;;;17.02;10.07;;;;;;;18.14;81.35;102342.16;4994852;28;20054;-83
2021/09/02 10:00:16;;;;;;;16.75;10.38;;;;;;;18.06;80.23;102328.63;4997278;28;20052;-84
2021/09/02 10:02:44;;;;;;;16.33;10.20;;;;;;;18.00;81.32;102332.88;4996986;28;20095;-83
2021/09/02 10:05:12;;;;;;;19.80;9.68;;;;;;;17.95;81.56;102332.56;4998742;28;20124;-83
2021/09/02 10:07:40;;;;;;;16.83;9.53;;;;;;;17.92;81.66;102327.47;4998447;28;20053;-84
2021/09/02 10:10:09;;;;;;;16.35;9.18;;;;;;;17.92;82.86;102338.34;4996967;28;20046;-83
2021/09/02 10:12:35;;;;;;;;;;;;;;;18.00;83.73;102324.75;4995006;28;20519;-83
2021/09/02 10:15:15;;;;;;;14.50;9.13;;;;;;;17.99;82.75;102323.06;4995888;28;20166;-83
2021/09/02 10:17:41;;;;;;;19.23;10.23;;;;;;;18.04;82.17;102331.53;5008976;28;20061;-84
2021/09/02 10:20:15;;;;;;;18.55;9.30;;;;;;;18.22;82.40;102329.41;4997384;28;20053;-82
2021/09/02 10:22:41;;;;;;;17.00;8.88;;;;;;;18.52;81.85;102326.00;4985057;28;20283;-83
2021/09/02 10:25:35;;;;;;;17.52;9.27;;;;;;;18.63;79.45;102326.44;4995147;28;20050;-84
2021/09/02 10:28:24;;;;;;;15.15;8.88;;;;;;;18.58;80.31;102323.41;5011252;28;20547;-83
2021/09/02 10:30:55;;;;;;;15.00;8.50;;;;;;;18.46;78.55;102320.25;5007794;28;20050;-82
2021/09/02 10:33:43;;;;;;;16.58;9.70;;;;;;;18.34;78.82;102313.53;4999279;28;20411;-83
2021/09/02 10:36:11;;;;;;;14.07;9.20;;;;;;;18.44;79.68;102306.00;4976601;28;20062;-83
2021/09/02 10:38:50;;;;;;;13.88;8.30;;;;;;;18.57;78.29;102316.28;5000224;28;20307;-83
2021/09/02 10:41:36;;;;;;;;;;;;;;;18.63;78.40;102315.56;4994890;28;20635;-84
2021/09/02 10:44:03;;;;;;;15.73;9.82;;;;;;;18.53;79.51;102297.78;5010195;28;20441;-83
2021/09/02 10:46:37;;;;;;;19.48;10.23;;;;;;;18.52;80.26;102305.09;4996551;28;20097;-84
2021/09/02 10:49:16;;;;;;;16.25;8.77;;;;;;;18.65;80.73;102304.50;4994713;28;20431;-85
2021/09/02 10:51:45;;;;;;;17.33;10.10;;;;;;;18.77;79.92;102294.09;4994915;28;20041;-84
2021/09/02 10:54:11;;;;;;;18.73;10.77;;;;;;;18.67;79.97;102300.59;5013206;28;20041;-83
2021/09/02 10:56:56;;;;;;;14.52;8.80;;;;;;;18.66;80.37;102298.88;4998087;28;20085;-84
2021/09/02 10:59:36;;;;;;;17.67;10.48;;;;;;;18.80;79.90;102291.84;5011860;28;20046;-84
2021/09/02 11:02:03;;;;;;;15.00;9.20;;;;;;;18.92;79.57;102298.53;4980003;28;20044;-83
2021/09/02 11:04:28;;;;;;;15.68;9.35;;;;;;;19.00;79.23;102296.78;4995073;28;20068;-84
2021/09/02 11:06:55;;;;;;;14.43;9.35;;;;;;;19.14;79.23;102296.81;5003692;28;20061;-84
2021/09/02 11:09:37;;;;;;;17.70;9.85;;;;;;;19.16;79.55;102294.75;5000273;28;20042;-84
2021/09/02 11:12:05;;;;;;;15.10;9.13;;;;;;;19.26;78.34;102282.75;5015097;28;20100;-84